createdAt,value
2018-02-11T00:00:54.496Z,0.00
2018-02-11T00:01:54.508Z,0.00
2018-02-11T00:02:54.534Z,0.00
2018-02-11T00:03:54.547Z,0.00
2018-02-11T00:04:54.579Z,0.00
2018-02-11T00:05:54.583Z,0.00
2018-02-11T00:06:54.602Z,0.00
2018-02-11T00:07:54.627Z,0.00
2018-02-11T00:08:54.653Z,0.00
2018-02-11T00:09:54.659Z,0.00
2018-02-11T00:10:54.689Z,0.00
2018-02-11T00:11:54.704Z,0.00
2018-02-11T00:12:54.721Z,0.00
2018-02-11T00:13:54.742Z,0.00
2018-02-11T00:14:54.756Z,0.00
2018-02-11T00:15:54.776Z,0.00
2018-02-11T00:16:54.801Z,0.00
2018-02-11T00:17:54.817Z,0.00
2018-02-11T00:18:54.834Z,0.00
2018-02-11T00:19:54.866Z,0.00
2018-02-11T00:20:54.874Z,0.00
2018-02-11T00:21:54.894Z,0.00
2018-02-11T00:22:54.916Z,0.00
2018-02-11T00:23:54.932Z,0.00
2018-02-11T00:24:54.958Z,0.00
2018-02-11T00:25:54.970Z,0.00
2018-02-11T00:26:54.995Z,0.00
2018-02-11T00:27:55.018Z,0.00
2018-02-11T00:28:55.039Z,0.00
2018-02-11T00:29:55.055Z,0.00
2018-02-11T00:30:55.068Z,0.00
2018-02-11T00:31:55.089Z,0.00
2018-02-11T00:32:55.111Z,0.00
2018-02-11T00:33:55.125Z,0.00
2018-02-11T00:34:55.148Z,0.00
2018-02-11T00:35:55.172Z,0.00
2018-02-11T00:36:55.186Z,0.00
2018-02-11T00:37:55.207Z,0.00
2018-02-11T00:38:55.235Z,0.00
2018-02-11T00:39:55.248Z,0.00
2018-02-11T00:40:55.259Z,0.00
2018-02-11T00:41:55.283Z,0.00
2018-02-11T00:42:55.311Z,0.00
2018-02-11T00:43:55.318Z,0.00
2018-02-11T00:44:55.352Z,0.00
2018-02-11T00:45:55.358Z,0.00
2018-02-11T00:46:55.382Z,0.00
2018-02-11T00:47:55.397Z,0.00
2018-02-11T00:48:55.415Z,0.00
2018-02-11T00:49:55.432Z,0.00
2018-02-11T00:50:55.457Z,0.00
2018-02-11T00:51:55.484Z,0.00
2018-02-11T00:52:55.492Z,0.00
2018-02-11T00:53:55.527Z,0.00
2018-02-11T00:54:55.546Z,0.00
2018-02-11T00:55:55.557Z,0.00
2018-02-11T00:56:55.569Z,0.00
2018-02-11T00:57:55.591Z,0.00
2018-02-11T00:58:55.614Z,0.00
2018-02-11T00:59:55.626Z,0.00
2018-02-11T01:00:55.647Z,0.00
2018-02-11T01:01:55.677Z,0.00
2018-02-11T01:02:55.688Z,0.00
2018-02-11T01:03:55.703Z,0.00
2018-02-11T01:04:55.738Z,0.00
2018-02-11T01:05:55.746Z,0.00
2018-02-11T01:06:55.799Z,0.00
2018-02-11T01:07:55.811Z,0.00
2018-02-11T01:08:55.805Z,0.00
2018-02-11T01:09:55.825Z,0.00
2018-02-11T01:10:55.839Z,0.00
2018-02-11T01:11:55.863Z,0.00
2018-02-11T01:12:55.879Z,0.00
2018-02-11T01:13:55.898Z,0.00
2018-02-11T01:14:55.926Z,0.00
2018-02-11T01:15:55.940Z,0.00
2018-02-11T01:16:55.959Z,0.00
2018-02-11T01:17:55.986Z,0.00
2018-02-11T01:18:55.998Z,0.00
2018-02-11T01:19:56.021Z,0.00
2018-02-11T01:20:56.037Z,0.00
2018-02-11T01:21:56.055Z,0.00
2018-02-11T01:22:56.083Z,0.00
2018-02-11T01:23:56.105Z,0.00
2018-02-11T01:24:56.122Z,0.00
2018-02-11T01:25:56.154Z,0.00
2018-02-11T01:26:56.153Z,0.00
2018-02-11T01:27:56.168Z,0.00
2018-02-11T01:28:56.192Z,0.00
2018-02-11T01:29:56.218Z,0.00
2018-02-11T01:30:56.284Z,0.00
2018-02-11T01:31:56.251Z,0.00
2018-02-11T01:32:56.266Z,0.00
2018-02-11T01:33:56.284Z,0.00
2018-02-11T01:34:56.320Z,0.00
2018-02-11T01:35:56.322Z,0.00
2018-02-11T01:36:56.339Z,0.00
2018-02-11T01:37:56.358Z,0.00
2018-02-11T01:38:56.381Z,0.00
2018-02-11T01:39:56.396Z,0.00
2018-02-11T01:40:56.413Z,0.00
2018-02-11T01:41:56.432Z,0.00
2018-02-11T01:42:56.455Z,0.00
2018-02-11T01:43:57.117Z,0.00
2018-02-11T01:44:56.493Z,0.00
2018-02-11T01:45:56.545Z,0.00
2018-02-11T01:46:56.529Z,0.00
2018-02-11T01:47:56.555Z,0.00
2018-02-11T01:48:56.572Z,0.00
2018-02-11T01:49:56.593Z,0.00
2018-02-11T01:50:56.659Z,0.00
2018-02-11T01:51:56.623Z,0.00
2018-02-11T01:52:56.648Z,0.00
2018-02-11T01:53:56.667Z,0.00
2018-02-11T01:54:56.687Z,0.00
2018-02-11T01:55:56.710Z,0.00
2018-02-11T01:56:56.723Z,0.00
2018-02-11T01:57:56.746Z,0.00
2018-02-11T01:58:56.759Z,0.00
2018-02-11T01:59:56.783Z,0.00
2018-02-11T02:00:56.804Z,0.00
2018-02-11T02:01:56.825Z,0.00
2018-02-11T02:02:56.842Z,0.00
2018-02-11T02:03:56.857Z,0.00
2018-02-11T02:04:56.889Z,0.00
2018-02-11T02:05:56.905Z,0.00
2018-02-11T02:06:56.916Z,0.00
2018-02-11T02:07:56.934Z,0.00
2018-02-11T02:08:56.960Z,0.00
2018-02-11T02:09:56.971Z,0.00
2018-02-11T02:10:56.996Z,0.00
2018-02-11T02:11:57.009Z,0.00
2018-02-11T02:12:57.033Z,0.00
2018-02-11T02:13:57.052Z,0.00
2018-02-11T02:14:57.073Z,0.00
2018-02-11T02:15:57.091Z,0.00
2018-02-11T02:16:57.107Z,0.00
2018-02-11T02:17:57.130Z,0.00
2018-02-11T02:18:57.151Z,0.00
2018-02-11T02:19:57.171Z,0.00
2018-02-11T02:20:57.186Z,0.00
2018-02-11T02:21:57.204Z,0.00
2018-02-11T02:22:57.225Z,0.00
2018-02-11T02:23:57.254Z,0.00
2018-02-11T02:24:57.258Z,0.00
2018-02-11T02:25:57.285Z,0.00
2018-02-11T02:26:57.300Z,0.00
2018-02-11T02:27:57.317Z,0.00
2018-02-11T02:28:57.339Z,0.00
2018-02-11T02:29:57.356Z,0.00
2018-02-11T02:30:57.374Z,0.00
2018-02-11T02:31:57.405Z,0.00
2018-02-11T02:32:57.415Z,0.00
2018-02-11T02:33:57.434Z,0.00
2018-02-11T02:34:57.456Z,0.00
2018-02-11T02:35:57.470Z,0.00
2018-02-11T02:36:57.494Z,0.00
2018-02-11T02:37:57.507Z,0.00
2018-02-11T02:38:57.525Z,0.00
2018-02-11T02:39:57.548Z,0.00
2018-02-11T02:40:57.570Z,0.00
2018-02-11T02:41:57.591Z,0.00
2018-02-11T02:42:57.608Z,0.00
2018-02-11T02:43:57.626Z,0.00
2018-02-11T02:44:57.643Z,0.00
2018-02-11T02:45:57.665Z,0.00
2018-02-11T02:46:57.681Z,0.00
2018-02-11T02:47:57.702Z,0.00
2018-02-11T02:48:57.815Z,0.00
2018-02-11T02:49:57.742Z,0.00
2018-02-11T02:50:57.760Z,0.00
2018-02-11T02:51:57.784Z,0.00
2018-02-11T02:52:57.798Z,0.00
2018-02-11T02:53:57.820Z,0.00
2018-02-11T02:54:57.837Z,0.00
2018-02-11T02:55:57.851Z,0.00
2018-02-11T02:56:57.890Z,0.00
2018-02-11T02:57:57.897Z,0.00
2018-02-11T02:58:57.910Z,0.00
2018-02-11T02:59:57.929Z,0.00
2018-02-11T03:00:57.949Z,0.00
2018-02-11T03:01:57.979Z,0.00
2018-02-11T03:02:57.986Z,0.00
2018-02-11T03:03:58.021Z,0.00
2018-02-11T03:04:58.023Z,0.00
2018-02-11T03:05:58.063Z,0.00
2018-02-11T03:06:58.070Z,0.00
2018-02-11T03:07:58.080Z,0.00
2018-02-11T03:08:58.099Z,0.00
2018-02-11T03:09:58.119Z,0.00
2018-02-11T03:10:58.143Z,0.00
2018-02-11T03:11:58.160Z,0.00
2018-02-11T03:12:58.176Z,0.00
2018-02-11T03:13:58.197Z,0.00
2018-02-11T03:14:58.221Z,0.00
2018-02-11T03:15:58.229Z,0.00
2018-02-11T03:16:58.253Z,0.00
2018-02-11T03:17:58.276Z,0.00
2018-02-11T03:18:58.290Z,0.00
2018-02-11T03:19:58.317Z,0.00
2018-02-11T03:20:58.327Z,0.00
2018-02-11T03:21:58.347Z,0.00
2018-02-11T03:22:58.365Z,0.00
2018-02-11T03:23:58.384Z,0.00
2018-02-11T03:24:58.406Z,0.00
2018-02-11T03:25:58.423Z,0.00
2018-02-11T03:26:58.441Z,0.00
2018-02-11T03:27:58.534Z,0.00
2018-02-11T03:28:58.490Z,0.00
2018-02-11T03:29:58.545Z,0.00
2018-02-11T03:30:58.537Z,0.00
2018-02-11T03:31:58.533Z,0.00
2018-02-11T03:32:58.551Z,0.00
2018-02-11T03:33:58.573Z,0.00
2018-02-11T03:34:58.593Z,0.00
2018-02-11T03:35:58.612Z,0.00
2018-02-11T03:36:58.636Z,0.00
2018-02-11T03:37:58.657Z,0.00
2018-02-11T03:38:58.667Z,0.00
2018-02-11T03:39:58.687Z,0.00
2018-02-11T03:40:58.708Z,0.00
2018-02-11T03:41:58.721Z,0.00
2018-02-11T03:42:58.743Z,0.00
2018-02-11T03:43:58.765Z,0.00
2018-02-11T03:44:58.781Z,0.00
2018-02-11T03:45:58.806Z,0.00
2018-02-11T03:46:58.821Z,0.00
2018-02-11T03:47:58.835Z,0.00
2018-02-11T03:48:58.858Z,0.00
2018-02-11T03:49:58.880Z,0.00
2018-02-11T03:50:58.892Z,0.00
2018-02-11T03:51:58.914Z,0.00
2018-02-11T03:52:58.939Z,0.00
2018-02-11T03:53:58.952Z,0.00
2018-02-11T03:54:58.982Z,0.00
2018-02-11T03:55:58.987Z,0.00
2018-02-11T03:56:59.014Z,0.00
2018-02-11T03:57:59.026Z,0.00
2018-02-11T03:58:59.047Z,0.00
2018-02-11T03:59:59.065Z,0.00
2018-02-11T04:00:59.084Z,0.00
2018-02-11T04:01:59.103Z,0.00
2018-02-11T04:02:59.122Z,0.00
2018-02-11T04:03:59.142Z,0.00
2018-02-11T04:04:59.171Z,0.00
2018-02-11T04:05:59.186Z,0.00
2018-02-11T04:06:59.202Z,0.00
2018-02-11T04:07:59.228Z,0.00
2018-02-11T04:08:59.234Z,0.00
2018-02-11T04:09:59.264Z,0.00
2018-02-11T04:10:59.281Z,0.00
2018-02-11T04:11:59.298Z,0.00
2018-02-11T04:12:59.311Z,0.00
2018-02-11T04:13:59.331Z,0.00
2018-02-11T04:14:59.347Z,0.00
2018-02-11T04:15:59.372Z,0.00
2018-02-11T04:16:59.388Z,0.00
2018-02-11T04:17:59.407Z,0.00
2018-02-11T04:18:59.426Z,0.00
2018-02-11T04:19:59.447Z,0.00
2018-02-11T04:20:59.466Z,0.00
2018-02-11T04:21:59.476Z,0.00
2018-02-11T04:22:59.498Z,0.00
2018-02-11T04:23:59.516Z,0.00
2018-02-11T04:24:59.542Z,0.00
2018-02-11T04:25:59.553Z,0.00
2018-02-11T04:26:59.572Z,0.00
2018-02-11T04:27:59.593Z,0.00
2018-02-11T04:28:59.612Z,0.00
2018-02-11T04:29:59.628Z,0.00
2018-02-11T04:30:59.661Z,0.00
2018-02-11T04:31:59.674Z,0.00
2018-02-11T04:33:00.617Z,0.00
2018-02-11T04:33:59.707Z,0.00
2018-02-11T04:34:59.743Z,0.00
2018-02-11T04:35:59.743Z,0.00
2018-02-11T04:36:59.759Z,0.00
2018-02-11T04:37:59.779Z,0.00
2018-02-11T04:38:59.798Z,0.00
2018-02-11T04:39:59.819Z,0.00
2018-02-11T04:40:59.837Z,0.00
2018-02-11T04:41:59.860Z,0.00
2018-02-11T04:42:59.871Z,0.00
2018-02-11T04:43:59.900Z,0.00
2018-02-11T04:44:59.920Z,0.00
2018-02-11T04:46:00.617Z,0.00
2018-02-11T04:46:59.953Z,0.00
2018-02-11T04:47:59.967Z,0.00
2018-02-11T04:48:59.987Z,0.00
2018-02-11T04:50:00.012Z,0.00
2018-02-11T04:51:00.034Z,0.00
2018-02-11T04:52:00.042Z,0.00
2018-02-11T04:53:00.060Z,0.00
2018-02-11T04:54:00.086Z,0.00
2018-02-11T04:55:00.099Z,0.00
2018-02-11T04:56:00.136Z,0.00
2018-02-11T04:57:00.183Z,0.00
2018-02-11T04:58:00.154Z,0.00
2018-02-11T04:59:00.259Z,0.00
2018-02-11T05:00:00.200Z,0.00
2018-02-11T05:01:00.215Z,0.00
2018-02-11T05:02:00.231Z,0.00
2018-02-11T05:03:00.252Z,0.00
2018-02-11T05:04:00.267Z,0.00
2018-02-11T05:05:00.295Z,0.00
2018-02-11T05:06:00.304Z,0.00
2018-02-11T05:07:00.321Z,0.00
2018-02-11T05:08:00.339Z,0.00
2018-02-11T05:09:00.359Z,0.00
2018-02-11T05:10:00.512Z,0.00
2018-02-11T05:11:00.403Z,0.00
2018-02-11T05:12:00.441Z,0.00
2018-02-11T05:13:00.436Z,0.00
2018-02-11T05:14:00.468Z,0.00
2018-02-11T05:15:00.476Z,0.00
2018-02-11T05:16:00.501Z,0.00
2018-02-11T05:17:00.519Z,0.00
2018-02-11T05:18:00.531Z,0.00
2018-02-11T05:19:00.548Z,0.00
2018-02-11T05:20:00.576Z,0.00
2018-02-11T05:21:00.589Z,0.00
2018-02-11T05:22:00.614Z,0.00
2018-02-11T05:23:00.634Z,0.00
2018-02-11T05:24:00.643Z,0.00
2018-02-11T05:25:00.666Z,0.00
2018-02-11T05:26:00.685Z,0.00
2018-02-11T05:27:00.702Z,0.00
2018-02-11T05:28:00.720Z,0.00
2018-02-11T05:29:00.743Z,0.00
2018-02-11T05:30:00.758Z,0.00
2018-02-11T05:31:00.783Z,0.00
2018-02-11T05:32:00.798Z,0.00
2018-02-11T05:33:00.819Z,0.00
2018-02-11T05:34:00.836Z,0.00
2018-02-11T05:35:00.854Z,0.00
2018-02-11T05:36:00.875Z,0.00
2018-02-11T05:37:00.905Z,0.00
2018-02-11T05:38:00.908Z,0.00
2018-02-11T05:39:00.929Z,0.00
2018-02-11T05:40:00.958Z,0.00
2018-02-11T05:41:00.969Z,0.00
2018-02-11T05:42:00.986Z,0.00
2018-02-11T05:43:01.012Z,0.00
2018-02-11T05:44:01.025Z,0.00
2018-02-11T05:45:01.053Z,0.00
2018-02-11T05:46:01.072Z,0.00
2018-02-11T05:47:01.082Z,0.00
2018-02-11T05:48:01.119Z,0.00
2018-02-11T05:49:01.120Z,0.00
2018-02-11T05:50:01.145Z,0.00
2018-02-11T05:51:01.167Z,0.00
2018-02-11T05:52:01.177Z,0.00
2018-02-11T05:53:01.218Z,0.00
2018-02-11T05:54:01.210Z,0.00
2018-02-11T05:55:01.233Z,0.00
2018-02-11T05:56:01.249Z,0.00
2018-02-11T05:57:01.276Z,0.00
2018-02-11T05:58:01.288Z,0.00
2018-02-11T05:59:01.308Z,0.00
2018-02-11T06:00:01.327Z,0.00
2018-02-11T06:01:01.344Z,0.00
2018-02-11T06:02:01.382Z,0.00
2018-02-11T06:03:01.383Z,0.00
2018-02-11T06:04:01.405Z,0.00
2018-02-11T06:05:01.430Z,0.00
2018-02-11T06:06:01.441Z,0.00
2018-02-11T06:07:01.462Z,4.00
2018-02-11T06:08:01.476Z,4.00
2018-02-11T06:09:01.503Z,0.00
2018-02-11T06:10:01.523Z,4.00
2018-02-11T06:11:01.537Z,4.00
2018-02-11T06:12:01.551Z,4.00
2018-02-11T06:13:01.569Z,4.00
2018-02-11T06:14:01.611Z,8.00
2018-02-11T06:15:01.618Z,4.00
2018-02-11T06:16:01.630Z,8.00
2018-02-11T06:17:01.646Z,4.00
2018-02-11T06:18:01.718Z,4.00
2018-02-11T06:19:01.691Z,12.00
2018-02-11T06:20:01.705Z,12.00
2018-02-11T06:21:01.715Z,12.00
2018-02-11T06:22:01.737Z,16.00
2018-02-11T06:23:01.757Z,16.00
2018-02-11T06:24:01.775Z,16.00
2018-02-11T06:25:01.798Z,20.00
2018-02-11T06:26:01.816Z,20.00
2018-02-11T06:27:01.839Z,24.00
2018-02-11T06:28:01.856Z,24.00
2018-02-11T06:29:01.873Z,28.00
2018-02-11T06:30:01.901Z,28.00
2018-02-11T06:31:01.909Z,32.00
2018-02-11T06:32:01.928Z,36.00
2018-02-11T06:33:01.945Z,40.00
2018-02-11T06:34:01.974Z,44.00
2018-02-11T06:35:01.986Z,48.00
2018-02-11T06:36:02.004Z,52.00
2018-02-11T06:37:02.020Z,56.00
2018-02-11T06:38:02.045Z,56.00
2018-02-11T06:39:02.063Z,64.00
2018-02-11T06:40:02.079Z,68.00
2018-02-11T06:41:02.106Z,72.00
2018-02-11T06:42:02.112Z,72.00
2018-02-11T06:43:02.131Z,80.00
2018-02-11T06:44:02.152Z,80.00
2018-02-11T06:45:02.172Z,84.00
2018-02-11T06:46:02.183Z,84.00
2018-02-11T06:47:02.206Z,92.00
2018-02-11T06:48:02.240Z,96.00
2018-02-11T06:49:02.268Z,104.00
2018-02-11T06:50:02.263Z,112.00
2018-02-11T06:51:02.284Z,116.00
2018-02-11T06:52:02.301Z,120.00
2018-02-11T06:53:02.318Z,128.00
2018-02-11T06:54:02.340Z,132.00
2018-02-11T06:55:02.358Z,140.00
2018-02-11T06:56:02.407Z,148.00
2018-02-11T06:57:02.401Z,168.00
2018-02-11T06:58:02.424Z,184.00
2018-02-11T06:59:02.439Z,192.00
2018-02-11T07:00:02.457Z,196.00
2018-02-11T07:01:02.470Z,208.00
2018-02-11T07:02:02.501Z,200.00
2018-02-11T07:03:02.508Z,200.00
2018-02-11T07:04:02.525Z,208.00
2018-02-11T07:05:02.543Z,196.00
2018-02-11T07:06:02.574Z,204.00
2018-02-11T07:07:02.590Z,216.00
2018-02-11T07:08:02.608Z,240.00
2018-02-11T07:09:02.620Z,248.00
2018-02-11T07:10:02.638Z,248.00
2018-02-11T07:11:02.671Z,252.00
2018-02-11T07:12:02.674Z,264.00
2018-02-11T07:13:02.704Z,288.00
2018-02-11T07:14:02.711Z,296.00
2018-02-11T07:15:02.731Z,300.00
2018-02-11T07:16:02.751Z,308.00
2018-02-11T07:17:02.768Z,324.00
2018-02-11T07:18:02.786Z,352.00
2018-02-11T07:19:02.806Z,392.00
2018-02-11T07:20:02.844Z,408.00
2018-02-11T07:21:02.843Z,424.00
2018-02-11T07:22:02.861Z,460.00
2018-02-11T07:23:02.891Z,504.00
2018-02-11T07:24:02.901Z,532.00
2018-02-11T07:25:02.933Z,560.00
2018-02-11T07:26:02.942Z,632.00
2018-02-11T07:27:02.955Z,732.00
2018-02-11T07:28:02.974Z,852.00
2018-02-11T07:29:03.001Z,952.00
2018-02-11T07:30:03.015Z,1060.00
2018-02-11T07:31:03.031Z,1156.00
2018-02-11T07:32:03.054Z,1216.00
2018-02-11T07:33:03.140Z,1212.00
2018-02-11T07:34:03.091Z,1136.00
2018-02-11T07:35:03.105Z,1088.00
2018-02-11T07:36:03.126Z,1064.00
2018-02-11T07:37:03.145Z,1068.00
2018-02-11T07:38:03.166Z,1136.00
2018-02-11T07:39:03.190Z,1260.00
2018-02-11T07:40:03.217Z,1332.00
2018-02-11T07:41:03.228Z,1420.00
2018-02-11T07:42:03.241Z,1540.00
2018-02-11T07:43:03.256Z,1672.00
2018-02-11T07:44:03.276Z,1764.00
2018-02-11T07:45:03.305Z,1808.00
2018-02-11T07:46:03.314Z,1828.00
2018-02-11T07:47:03.333Z,1824.00
2018-02-11T07:48:03.356Z,1784.00
2018-02-11T07:49:03.378Z,1728.00
2018-02-11T07:50:03.392Z,1676.00
2018-02-11T07:51:03.422Z,1600.00
2018-02-11T07:52:03.429Z,1524.00
2018-02-11T07:53:03.448Z,1436.00
2018-02-11T07:54:03.469Z,1376.00
2018-02-11T07:55:03.487Z,1324.00
2018-02-11T07:56:03.521Z,1208.00
2018-02-11T07:57:03.530Z,1088.00
2018-02-11T07:58:03.549Z,892.00
2018-02-11T07:59:03.566Z,824.00
2018-02-11T08:00:03.589Z,776.00
2018-02-11T08:01:03.612Z,728.00
2018-02-11T08:02:03.626Z,680.00
2018-02-11T08:03:03.648Z,640.00
2018-02-11T08:04:03.663Z,620.00
2018-02-11T08:05:03.679Z,608.00
2018-02-11T08:06:03.706Z,616.00
2018-02-11T08:07:03.719Z,636.00
2018-02-11T08:08:03.747Z,696.00
2018-02-11T08:09:03.762Z,764.00
2018-02-11T08:10:03.780Z,848.00
2018-02-11T08:11:03.798Z,924.00
2018-02-11T08:12:03.888Z,980.00
2018-02-11T08:13:03.835Z,1012.00
2018-02-11T08:14:03.872Z,1016.00
2018-02-11T08:15:03.887Z,1012.00
2018-02-11T08:16:03.902Z,1008.00
2018-02-11T08:17:03.914Z,1020.00
2018-02-11T08:18:03.948Z,1036.00
2018-02-11T08:19:03.958Z,1064.00
2018-02-11T08:20:03.972Z,1104.00
2018-02-11T08:21:03.990Z,1144.00
2018-02-11T08:22:04.012Z,1180.00
2018-02-11T08:23:04.040Z,1244.00
2018-02-11T08:24:04.046Z,1308.00
2018-02-11T08:25:04.622Z,1372.00
2018-02-11T08:26:04.093Z,1412.00
2018-02-11T08:27:04.114Z,1488.00
2018-02-11T08:28:04.123Z,1548.00
2018-02-11T08:29:04.147Z,1560.00
2018-02-11T08:30:04.175Z,1496.00
2018-02-11T08:31:04.204Z,1444.00
2018-02-11T08:32:04.213Z,1532.00
2018-02-11T08:33:04.224Z,1680.00
2018-02-11T08:34:04.245Z,1488.00
2018-02-11T08:35:04.268Z,1260.00
2018-02-11T08:36:04.305Z,1104.00
2018-02-11T08:37:04.306Z,948.00
2018-02-11T08:38:04.332Z,924.00
2018-02-11T08:39:04.335Z,864.00
2018-02-11T08:40:04.357Z,872.00
2018-02-11T08:41:04.386Z,888.00
2018-02-11T08:42:04.401Z,948.00
2018-02-11T08:43:04.420Z,1024.00
2018-02-11T08:44:04.433Z,1072.00
2018-02-11T08:45:04.461Z,1172.00
2018-02-11T08:46:04.470Z,1308.00
2018-02-11T08:47:04.498Z,1564.00
2018-02-11T08:48:04.518Z,1848.00
2018-02-11T08:49:04.535Z,1900.00
2018-02-11T08:50:04.553Z,1868.00
2018-02-11T08:51:04.603Z,1928.00
2018-02-11T08:52:04.587Z,1956.00
2018-02-11T08:53:04.609Z,2004.00
2018-02-11T08:54:04.629Z,2036.00
2018-02-11T08:55:04.650Z,1996.00
2018-02-11T08:56:04.671Z,1924.00
2018-02-11T08:57:04.683Z,1932.00
2018-02-11T08:58:04.715Z,1864.00
2018-02-11T08:59:04.722Z,1752.00
2018-02-11T09:00:04.744Z,1616.00
2018-02-11T09:01:04.762Z,1488.00
2018-02-11T09:02:04.790Z,1380.00
2018-02-11T09:03:04.808Z,1324.00
2018-02-11T09:04:04.858Z,1296.00
2018-02-11T09:05:04.841Z,1268.00
2018-02-11T09:06:04.863Z,1268.00
2018-02-11T09:07:04.883Z,1300.00
2018-02-11T09:08:04.899Z,1352.00
2018-02-11T09:09:04.943Z,1420.00
2018-02-11T09:10:04.950Z,1496.00
2018-02-11T09:11:04.965Z,1564.00
2018-02-11T09:12:04.978Z,1640.00
2018-02-11T09:13:05.019Z,1724.00
2018-02-11T09:14:05.029Z,1820.00
2018-02-11T09:15:05.040Z,1936.00
2018-02-11T09:16:05.064Z,2088.00
2018-02-11T09:17:05.074Z,2232.00
2018-02-11T09:18:05.095Z,2276.00
2018-02-11T09:19:05.124Z,2184.00
2018-02-11T09:20:05.133Z,2092.00
2018-02-11T09:21:05.152Z,2080.00
2018-02-11T09:22:05.182Z,2176.00
2018-02-11T09:23:05.202Z,2348.00
2018-02-11T09:24:05.214Z,2608.00
2018-02-11T09:25:05.241Z,2852.00
2018-02-11T09:26:05.254Z,2912.00
2018-02-11T09:27:05.290Z,2888.00
2018-02-11T09:28:05.295Z,2952.00
2018-02-11T09:29:05.306Z,3000.00
2018-02-11T09:30:05.335Z,3092.00
2018-02-11T09:31:05.355Z,3228.00
2018-02-11T09:32:05.377Z,3156.00
2018-02-11T09:33:05.388Z,3160.00
2018-02-11T09:34:05.419Z,2952.00
2018-02-11T09:35:05.435Z,2724.00
2018-02-11T09:36:05.460Z,2648.00
2018-02-11T09:37:05.468Z,2752.00
2018-02-11T09:38:05.489Z,2992.00
2018-02-11T09:39:05.537Z,3144.00
2018-02-11T09:40:05.541Z,3164.00
2018-02-11T09:41:05.548Z,3120.00
2018-02-11T09:42:05.570Z,3248.00
2018-02-11T09:43:05.600Z,3468.00
2018-02-11T09:44:05.615Z,3812.00
2018-02-11T09:45:05.629Z,4148.00
2018-02-11T09:46:05.662Z,4392.00
2018-02-11T09:47:05.680Z,4436.00
2018-02-11T09:48:05.690Z,4312.00
2018-02-11T09:49:05.712Z,4124.00
2018-02-11T09:50:05.737Z,4024.00
2018-02-11T09:51:05.756Z,3916.00
2018-02-11T09:52:05.784Z,3728.00
2018-02-11T09:53:05.805Z,3392.00
2018-02-11T09:54:05.814Z,2992.00
2018-02-11T09:55:05.860Z,2604.00
2018-02-11T09:56:05.855Z,2280.00
2018-02-11T09:57:05.880Z,2032.00
2018-02-11T09:58:05.911Z,1868.00
2018-02-11T09:59:05.918Z,1744.00
2018-02-11T10:00:05.936Z,1612.00
2018-02-11T10:01:05.966Z,1520.00
2018-02-11T10:02:05.976Z,1496.00
2018-02-11T10:03:06.001Z,1504.00
2018-02-11T10:04:06.016Z,1524.00
2018-02-11T10:05:06.043Z,1532.00
2018-02-11T10:06:06.084Z,1516.00
2018-02-11T10:07:06.087Z,1476.00
2018-02-11T10:08:06.104Z,1492.00
2018-02-11T10:09:06.129Z,1580.00
2018-02-11T10:10:06.143Z,1656.00
2018-02-11T10:11:06.166Z,1768.00
2018-02-11T10:12:06.178Z,1924.00
2018-02-11T10:13:06.225Z,2124.00
2018-02-11T10:14:06.231Z,2364.00
2018-02-11T10:15:06.243Z,2700.00
2018-02-11T10:16:06.273Z,3120.00
2018-02-11T10:17:06.286Z,3580.00
2018-02-11T10:18:06.416Z,4128.00
2018-02-11T10:19:06.322Z,4824.00
2018-02-11T10:20:06.372Z,5436.00
2018-02-11T10:21:06.362Z,5924.00
2018-02-11T10:22:06.399Z,5732.00
2018-02-11T10:23:06.407Z,5032.00
2018-02-11T10:24:06.447Z,5396.00
2018-02-11T10:25:06.456Z,5412.00
2018-02-11T10:26:06.489Z,5776.00
2018-02-11T10:27:06.497Z,5908.00
2018-02-11T10:28:06.516Z,7080.00
2018-02-11T10:29:06.548Z,7048.00
2018-02-11T10:30:06.559Z,5416.00
2018-02-11T10:31:06.587Z,5416.00
2018-02-11T10:32:06.591Z,8168.00
2018-02-11T10:33:06.628Z,17088.00
2018-02-11T10:34:06.639Z,9968.00
2018-02-11T10:35:06.656Z,9328.00
2018-02-11T10:36:06.693Z,10148.00
2018-02-11T10:37:06.702Z,9776.00
2018-02-11T10:38:06.717Z,17728.00
2018-02-11T10:39:06.744Z,17856.00
2018-02-11T10:40:06.775Z,6560.00
2018-02-11T10:41:06.781Z,5476.00
2018-02-11T10:42:06.807Z,4612.00
2018-02-11T10:43:06.841Z,5100.00
2018-02-11T10:44:06.848Z,5064.00
2018-02-11T10:45:06.868Z,5340.00
2018-02-11T10:46:06.895Z,5364.00
2018-02-11T10:47:06.929Z,7908.00
2018-02-11T10:48:06.937Z,8292.00
2018-02-11T10:49:06.957Z,9104.00
2018-02-11T10:50:06.991Z,13832.00
2018-02-11T10:51:07.015Z,17600.00
2018-02-11T10:52:07.027Z,21728.00
2018-02-11T10:53:07.048Z,17792.00
2018-02-11T10:54:07.067Z,12628.00
2018-02-11T10:55:07.094Z,12772.00
2018-02-11T10:56:07.113Z,9084.00
2018-02-11T10:57:07.148Z,8484.00
2018-02-11T10:58:07.161Z,6388.00
2018-02-11T10:59:07.181Z,5228.00
2018-02-11T11:00:07.224Z,6700.00
2018-02-11T11:01:07.230Z,7976.00
2018-02-11T11:02:07.252Z,7396.00
2018-02-11T11:03:07.275Z,6728.00
2018-02-11T11:04:07.299Z,4912.00
2018-02-11T11:05:07.321Z,4660.00
2018-02-11T11:06:07.344Z,3220.00
2018-02-11T11:07:07.368Z,2084.00
2018-02-11T11:08:07.382Z,1560.00
2018-02-11T11:09:07.417Z,1176.00
2018-02-11T11:10:07.437Z,904.00
2018-02-11T11:11:07.450Z,740.00
2018-02-11T11:12:07.487Z,636.00
2018-02-11T11:13:07.503Z,620.00
2018-02-11T11:14:07.528Z,672.00
2018-02-11T11:15:07.554Z,836.00
2018-02-11T11:16:07.569Z,1080.00
2018-02-11T11:17:07.597Z,1228.00
2018-02-11T11:18:07.605Z,1384.00
2018-02-11T11:19:07.627Z,1532.00
2018-02-11T11:20:07.669Z,1576.00
2018-02-11T11:21:07.676Z,1304.00
2018-02-11T11:22:07.703Z,1248.00
2018-02-11T11:23:07.725Z,1180.00
2018-02-11T11:24:07.737Z,1156.00
2018-02-11T11:25:07.762Z,1092.00
2018-02-11T11:26:07.778Z,1184.00
2018-02-11T11:27:07.817Z,1320.00
2018-02-11T11:28:07.821Z,1524.00
2018-02-11T11:29:07.852Z,1392.00
2018-02-11T11:30:07.870Z,1508.00
2018-02-11T11:31:07.884Z,1684.00
2018-02-11T11:32:07.908Z,1628.00
2018-02-11T11:33:07.925Z,1500.00
2018-02-11T11:34:07.952Z,1412.00
2018-02-11T11:35:07.970Z,1424.00
2018-02-11T11:36:07.989Z,1224.00
2018-02-11T11:37:08.012Z,1100.00
2018-02-11T11:38:08.042Z,1320.00
2018-02-11T11:39:08.054Z,1608.00
2018-02-11T11:40:08.075Z,2092.00
2018-02-11T11:41:08.091Z,2536.00
2018-02-11T11:42:08.120Z,2452.00
2018-02-11T11:43:08.209Z,1836.00
2018-02-11T11:44:08.157Z,1632.00
2018-02-11T11:45:08.211Z,1588.00
2018-02-11T11:46:08.198Z,1852.00
2018-02-11T11:47:08.218Z,1652.00
2018-02-11T11:48:08.240Z,1696.00
2018-02-11T11:49:08.280Z,1632.00
2018-02-11T11:50:08.291Z,1748.00
2018-02-11T11:51:08.304Z,1768.00
2018-02-11T11:52:08.333Z,1732.00
2018-02-11T11:53:08.348Z,1732.00
2018-02-11T11:54:08.381Z,1892.00
2018-02-11T11:55:08.388Z,2120.00
2018-02-11T11:56:08.447Z,2144.00
2018-02-11T11:57:08.429Z,2192.00
2018-02-11T11:58:08.461Z,2048.00
2018-02-11T11:59:08.474Z,1872.00
2018-02-11T12:00:08.495Z,1628.00
2018-02-11T12:01:08.510Z,1504.00
2018-02-11T12:02:08.549Z,1400.00
2018-02-11T12:03:08.560Z,1332.00
2018-02-11T12:04:08.584Z,1284.00
2018-02-11T12:05:08.597Z,1216.00
2018-02-11T12:06:08.616Z,1172.00
2018-02-11T12:07:08.653Z,1136.00
2018-02-11T12:08:08.658Z,1120.00
2018-02-11T12:09:08.711Z,1128.00
2018-02-11T12:10:08.696Z,1072.00
2018-02-11T12:11:08.719Z,1028.00
2018-02-11T12:12:08.737Z,1060.00
2018-02-11T12:13:08.765Z,1072.00
2018-02-11T12:14:08.779Z,1020.00
2018-02-11T12:15:08.802Z,1048.00
2018-02-11T12:16:08.817Z,880.00
2018-02-11T12:17:08.846Z,956.00
2018-02-11T12:18:08.866Z,1092.00
2018-02-11T12:19:08.889Z,1052.00
2018-02-11T12:20:08.901Z,988.00
2018-02-11T12:21:08.925Z,960.00
2018-02-11T12:22:08.953Z,904.00
2018-02-11T12:23:08.966Z,924.00
2018-02-11T12:24:08.993Z,916.00
2018-02-11T12:25:09.004Z,996.00
2018-02-11T12:26:09.046Z,1016.00
2018-02-11T12:27:09.048Z,1020.00
2018-02-11T12:28:09.071Z,968.00
2018-02-11T12:29:09.110Z,1088.00
2018-02-11T12:30:09.131Z,1092.00
2018-02-11T12:31:09.131Z,936.00
2018-02-11T12:32:09.154Z,1156.00
2018-02-11T12:33:09.172Z,1156.00
2018-02-11T12:34:09.201Z,1080.00
2018-02-11T12:35:09.213Z,1000.00
2018-02-11T12:36:09.242Z,1128.00
2018-02-11T12:37:09.256Z,1248.00
2018-02-11T12:38:09.282Z,1364.00
2018-02-11T12:39:09.307Z,1380.00
2018-02-11T12:40:09.317Z,1240.00
2018-02-11T12:41:09.357Z,1076.00
2018-02-11T12:42:09.363Z,960.00
2018-02-11T12:43:09.375Z,872.00
2018-02-11T12:44:09.396Z,716.00
2018-02-11T12:45:09.443Z,588.00